createdAt,value
2017-01-29T00:00:20.070Z,21.7
2017-01-29T00:01:00.587Z,21.75
2017-01-29T00:01:41.131Z,21.68
2017-01-29T00:02:21.660Z,21.7
2017-01-29T00:03:02.194Z,21.7
2017-01-29T00:03:42.721Z,21.78
2017-01-29T00:04:23.241Z,21.78
2017-01-29T00:05:03.785Z,21.77
2017-01-29T00:05:44.318Z,21.78
2017-01-29T00:06:24.857Z,21.75
2017-01-29T00:07:05.363Z,21.77
2017-01-29T00:07:45.906Z,21.74
2017-01-29T00:08:26.420Z,21.75
2017-01-29T00:09:06.979Z,21.72
2017-01-29T00:09:47.507Z,21.72
2017-01-29T00:10:28.027Z,21.78
2017-01-29T00:11:08.565Z,21.75
2017-01-29T00:11:49.102Z,21.77
2017-01-29T00:12:29.655Z,21.81
2017-01-29T00:13:10.185Z,21.8
2017-01-29T00:13:50.746Z,21.8
2017-01-29T00:14:31.280Z,21.84
2017-01-29T00:15:11.821Z,21.8
2017-01-29T00:15:52.451Z,21.78
2017-01-29T00:16:33.003Z,21.81
2017-01-29T00:17:13.554Z,21.88
2017-01-29T00:17:54.072Z,21.83
2017-01-29T00:18:34.619Z,21.83
2017-01-29T00:19:15.123Z,21.88
2017-01-29T00:19:55.669Z,21.84
2017-01-29T00:20:36.184Z,21.84
2017-01-29T00:21:16.689Z,21.85
2017-01-29T00:21:57.224Z,21.83
2017-01-29T00:22:37.751Z,21.84
2017-01-29T00:23:18.263Z,21.85
2017-01-29T00:23:58.801Z,21.94
2017-01-29T00:24:39.335Z,21.85
2017-01-29T00:25:19.837Z,21.96
2017-01-29T00:26:00.364Z,21.89
2017-01-29T00:26:40.898Z,21.89
2017-01-29T00:27:21.435Z,21.91
2017-01-29T00:28:01.963Z,21.85
2017-01-29T00:28:42.512Z,21.89
2017-01-29T00:29:23.044Z,21.91
2017-01-29T00:30:03.571Z,21.89
2017-01-29T00:30:44.108Z,21.94
2017-01-29T00:31:24.625Z,21.97
2017-01-29T00:32:05.132Z,21.89
2017-01-29T00:32:45.659Z,21.85
2017-01-29T00:33:26.218Z,21.94
2017-01-29T00:34:06.756Z,21.99
2017-01-29T00:34:47.293Z,21.81
2017-01-29T00:35:27.863Z,21.91
2017-01-29T00:36:08.392Z,21.85
2017-01-29T00:36:48.905Z,21.89
2017-01-29T00:37:29.427Z,21.88
2017-01-29T00:38:09.944Z,21.92
2017-01-29T00:38:50.468Z,21.83
2017-01-29T00:39:30.992Z,21.96
2017-01-29T00:40:11.507Z,21.84
2017-01-29T00:40:52.025Z,21.92
2017-01-29T00:41:32.548Z,21.91
2017-01-29T00:42:13.086Z,21.94
2017-01-29T00:42:53.601Z,22.01
2017-01-29T00:43:34.123Z,21.97
2017-01-29T00:44:14.651Z,22
2017-01-29T00:44:55.182Z,21.94
2017-01-29T00:45:35.723Z,21.94
2017-01-29T00:46:16.254Z,21.97
2017-01-29T00:46:56.776Z,22
2017-01-29T00:47:37.293Z,21.94
2017-01-29T00:48:17.835Z,21.94
2017-01-29T00:48:58.358Z,21.97
2017-01-29T00:49:38.897Z,21.99
2017-01-29T00:50:19.423Z,21.91
2017-01-29T00:50:59.943Z,21.99
2017-01-29T00:51:40.491Z,22.04
2017-01-29T00:52:21.022Z,21.96
2017-01-29T00:53:01.575Z,21.94
2017-01-29T00:53:42.129Z,21.92
2017-01-29T00:54:22.696Z,21.96
2017-01-29T00:55:03.234Z,21.88
2017-01-29T00:55:43.758Z,22
2017-01-29T00:56:24.293Z,21.92
2017-01-29T00:57:04.820Z,21.96
2017-01-29T00:57:45.352Z,21.89
2017-01-29T00:58:25.897Z,22
2017-01-29T00:59:06.424Z,22
2017-01-29T00:59:46.984Z,21.94
2017-01-29T01:00:27.532Z,21.99
2017-01-29T01:01:08.056Z,22.06
2017-01-29T01:01:48.593Z,22
2017-01-29T01:02:29.126Z,22.04
2017-01-29T01:03:09.675Z,21.94
2017-01-29T01:03:50.220Z,22.1
2017-01-29T01:04:30.756Z,22.01
2017-01-29T01:05:11.283Z,22.03
2017-01-29T01:05:51.815Z,22.06
2017-01-29T01:06:32.344Z,21.92
2017-01-29T01:07:12.858Z,22.04
2017-01-29T01:07:53.375Z,22
2017-01-29T01:08:33.906Z,21.99
2017-01-29T01:09:14.449Z,22.12
2017-01-29T01:09:54.977Z,22.01
2017-01-29T01:10:35.524Z,22.14
2017-01-29T01:11:16.080Z,22.06
2017-01-29T01:11:56.629Z,22.06
2017-01-29T01:12:37.154Z,22.07
2017-01-29T01:13:17.703Z,22.04
2017-01-29T01:13:58.246Z,22.07
2017-01-29T01:14:38.769Z,22.06
2017-01-29T01:15:19.342Z,22.03
2017-01-29T01:15:59.852Z,22.08
2017-01-29T01:16:40.402Z,22.07
2017-01-29T01:17:20.927Z,22.07
2017-01-29T01:18:01.460Z,21.99
2017-01-29T01:18:41.980Z,22.04
2017-01-29T01:19:22.498Z,22
2017-01-29T01:20:03.018Z,22.08
2017-01-29T01:20:43.560Z,21.99
2017-01-29T01:21:24.083Z,22.01
2017-01-29T01:22:04.605Z,22.06
2017-01-29T01:22:45.130Z,22.08
2017-01-29T01:23:25.681Z,21.99
2017-01-29T01:24:06.213Z,22.12
2017-01-29T01:24:46.754Z,21.96
2017-01-29T01:25:27.285Z,22.04
2017-01-29T01:26:07.815Z,22.08
2017-01-29T01:26:48.363Z,22.07
2017-01-29T01:27:28.894Z,22.07
2017-01-29T01:28:09.414Z,22.07
2017-01-29T01:28:49.951Z,22.04
2017-01-29T01:29:30.496Z,22.07
2017-01-29T01:30:11.044Z,22.08
2017-01-29T01:30:51.578Z,22.08
2017-01-29T01:31:32.131Z,22.01
2017-01-29T01:32:12.643Z,22.1
2017-01-29T01:32:53.160Z,22.07
2017-01-29T01:33:33.680Z,22.04
2017-01-29T01:34:14.202Z,22.07
2017-01-29T01:34:54.723Z,22.08
2017-01-29T01:35:35.304Z,22.08
2017-01-29T01:36:15.832Z,22.12
2017-01-29T01:36:56.357Z,22.04
2017-01-29T01:37:36.926Z,22.07
2017-01-29T01:38:17.405Z,22.08
2017-01-29T01:38:57.924Z,22.1
2017-01-29T01:39:38.457Z,22.12
2017-01-29T01:40:18.980Z,22.08
2017-01-29T01:40:59.509Z,22.03
2017-01-29T01:41:40.047Z,22.06
2017-01-29T01:42:20.574Z,22.04
2017-01-29T01:43:01.107Z,22.07
2017-01-29T01:43:41.659Z,22.08
2017-01-29T01:44:22.177Z,22.03
2017-01-29T01:45:02.702Z,22.08
2017-01-29T01:45:43.231Z,22.06
2017-01-29T01:46:23.761Z,22.08
2017-01-29T01:47:04.307Z,22.1
2017-01-29T01:47:44.829Z,22.07
2017-01-29T01:48:25.374Z,22.06
2017-01-29T01:49:05.896Z,22.04
2017-01-29T01:49:46.446Z,22.18
2017-01-29T01:50:27.000Z,22.08
2017-01-29T01:51:07.516Z,22.14
2017-01-29T01:51:48.058Z,22.15
2017-01-29T01:52:28.573Z,22.07
2017-01-29T01:53:09.090Z,22.08
2017-01-29T01:53:49.611Z,22.21
2017-01-29T01:54:30.118Z,22.12
2017-01-29T01:55:10.655Z,22.07
2017-01-29T01:55:51.218Z,22.16
2017-01-29T01:56:31.738Z,22.14
2017-01-29T01:57:12.280Z,22.15
2017-01-29T01:57:52.802Z,22.12
2017-01-29T01:58:33.332Z,22.07
2017-01-29T01:59:13.858Z,22.14
2017-01-29T01:59:54.384Z,22.15
2017-01-29T02:00:34.908Z,22.1
2017-01-29T02:01:15.439Z,22.1
2017-01-29T02:01:55.979Z,22.15
2017-01-29T02:02:36.493Z,22.15
2017-01-29T02:03:17.006Z,22.14
2017-01-29T02:03:57.530Z,22.15
2017-01-29T02:04:38.037Z,22.14
2017-01-29T02:05:18.554Z,22.22
2017-01-29T02:05:59.074Z,22.16
2017-01-29T02:06:39.607Z,22.14
2017-01-29T02:07:20.139Z,22.14
2017-01-29T02:08:00.669Z,22.18
2017-01-29T02:08:41.187Z,22.16
2017-01-29T02:09:21.722Z,22.12
2017-01-29T02:10:02.243Z,22.1
2017-01-29T02:10:42.750Z,22.19
2017-01-29T02:11:23.311Z,22.19
2017-01-29T02:12:03.803Z,22.15
2017-01-29T02:12:44.347Z,22.14
2017-01-29T02:13:24.852Z,22.16
2017-01-29T02:14:05.380Z,22.16
2017-01-29T02:14:45.898Z,22.15
2017-01-29T02:15:26.457Z,22.15
2017-01-29T02:16:06.979Z,22.15
2017-01-29T02:16:47.504Z,22.15
2017-01-29T02:17:28.038Z,22.18
2017-01-29T02:18:08.559Z,22.18
2017-01-29T02:18:49.084Z,22.15
2017-01-29T02:19:29.614Z,22.18
2017-01-29T02:20:10.139Z,22.15
2017-01-29T02:20:50.672Z,22.12
2017-01-29T02:21:31.203Z,22.15
2017-01-29T02:22:11.734Z,22.19
2017-01-29T02:22:52.249Z,22.15
2017-01-29T02:23:32.794Z,22.16
2017-01-29T02:24:13.335Z,22.19
2017-01-29T02:24:53.856Z,22.19
2017-01-29T02:25:34.382Z,22.19
2017-01-29T02:26:14.911Z,22.18
2017-01-29T02:26:55.433Z,22.15
2017-01-29T02:27:35.960Z,22.12
2017-01-29T02:28:16.504Z,22.15
2017-01-29T02:28:57.029Z,22.14
2017-01-29T02:29:37.567Z,22.14
2017-01-29T02:30:18.095Z,22.18
2017-01-29T02:30:58.617Z,22.14
2017-01-29T02:31:39.167Z,22.16
2017-01-29T02:32:19.681Z,22.25
2017-01-29T02:33:00.207Z,22.19
2017-01-29T02:33:40.731Z,22.12
2017-01-29T02:34:21.269Z,22.14
2017-01-29T02:35:01.814Z,22.12
2017-01-29T02:35:42.371Z,22.18
2017-01-29T02:36:22.901Z,22.22
2017-01-29T02:37:03.408Z,22.19
2017-01-29T02:37:43.940Z,22.21
2017-01-29T02:38:24.464Z,22.12
2017-01-29T02:39:04.998Z,22.19
2017-01-29T02:39:45.535Z,22.23
2017-01-29T02:40:26.132Z,22.12
2017-01-29T02:41:06.673Z,22.12
2017-01-29T02:41:47.221Z,22.21
2017-01-29T02:42:27.739Z,22.16
2017-01-29T02:43:08.275Z,22.23
2017-01-29T02:43:48.814Z,22.23
2017-01-29T02:44:29.355Z,22.12
2017-01-29T02:45:09.904Z,22.16
2017-01-29T02:45:50.429Z,22.12
2017-01-29T02:46:30.950Z,22.14
2017-01-29T02:47:11.469Z,22.21
2017-01-29T02:47:51.993Z,22.16
2017-01-29T02:48:32.526Z,22.16
2017-01-29T02:49:13.051Z,22.18
2017-01-29T02:49:53.594Z,22.18
2017-01-29T02:50:34.110Z,22.16
2017-01-29T02:51:14.637Z,22.18
2017-01-29T02:51:55.190Z,22.18
2017-01-29T02:52:35.725Z,22.25
2017-01-29T02:53:16.243Z,22.21
2017-01-29T02:53:56.790Z,22.22
2017-01-29T02:54:37.315Z,22.19
2017-01-29T02:55:17.876Z,22.25
2017-01-29T02:55:58.400Z,22.26
2017-01-29T02:56:39.000Z,22.25
2017-01-29T02:57:19.543Z,22.28
2017-01-29T02:58:00.075Z,22.26
2017-01-29T02:58:40.635Z,22.23
2017-01-29T02:59:21.204Z,22.21
2017-01-29T03:00:01.723Z,22.22
2017-01-29T03:00:42.273Z,22.25
2017-01-29T03:01:22.794Z,22.3
2017-01-29T03:02:03.340Z,22.26
2017-01-29T03:02:43.908Z,22.23
2017-01-29T03:03:24.487Z,22.3
2017-01-29T03:04:05.043Z,22.28
2017-01-29T03:04:45.609Z,22.21
2017-01-29T03:05:26.151Z,22.23
2017-01-29T03:06:06.690Z,22.23
2017-01-29T03:06:47.212Z,22.21
2017-01-29T03:07:27.725Z,22.26
2017-01-29T03:08:08.253Z,22.26
2017-01-29T03:08:48.775Z,22.26
2017-01-29T03:09:29.351Z,22.23
2017-01-29T03:10:09.859Z,22.23
2017-01-29T03:10:50.390Z,22.25
2017-01-29T03:11:30.917Z,22.23
2017-01-29T03:12:11.436Z,22.26
2017-01-29T03:12:51.969Z,22.26
2017-01-29T03:13:32.492Z,22.26
2017-01-29T03:14:13.012Z,22.23
2017-01-29T03:14:53.536Z,22.28
2017-01-29T03:15:34.048Z,22.23
2017-01-29T03:16:14.568Z,22.26
2017-01-29T03:16:55.092Z,22.3
2017-01-29T03:17:35.621Z,22.28
2017-01-29T03:18:16.138Z,22.26
2017-01-29T03:18:56.671Z,22.26
2017-01-29T03:19:37.220Z,22.28
2017-01-29T03:20:17.744Z,22.28
2017-01-29T03:20:58.279Z,22.33
2017-01-29T03:21:38.825Z,22.28
2017-01-29T03:22:19.358Z,22.26
2017-01-29T03:22:59.892Z,22.26
2017-01-29T03:23:40.418Z,22.25
2017-01-29T03:24:20.943Z,22.26
2017-01-29T03:25:01.489Z,22.26
2017-01-29T03:25:42.019Z,22.25
2017-01-29T03:26:22.559Z,22.26
2017-01-29T03:27:03.099Z,22.31
2017-01-29T03:27:43.638Z,22.22
2017-01-29T03:28:24.160Z,22.25
2017-01-29T03:29:04.696Z,22.3
2017-01-29T03:29:45.210Z,22.25
2017-01-29T03:30:25.739Z,22.3
2017-01-29T03:31:06.266Z,22.23
2017-01-29T03:31:46.792Z,22.25
2017-01-29T03:32:27.332Z,22.3
2017-01-29T03:33:07.858Z,22.28
2017-01-29T03:33:48.389Z,22.28
2017-01-29T03:34:28.912Z,22.33
2017-01-29T03:35:09.451Z,22.28
2017-01-29T03:35:49.994Z,22.25
2017-01-29T03:36:30.532Z,22.28
2017-01-29T03:37:11.096Z,22.26
2017-01-29T03:37:51.619Z,22.28
2017-01-29T03:38:32.171Z,22.3
2017-01-29T03:39:12.717Z,22.31
2017-01-29T03:39:53.268Z,22.25
2017-01-29T03:40:33.776Z,22.28
2017-01-29T03:41:14.296Z,22.31
2017-01-29T03:41:54.829Z,22.28
2017-01-29T03:42:35.343Z,22.26
2017-01-29T03:43:15.881Z,22.26
2017-01-29T03:43:56.394Z,22.31
2017-01-29T03:44:36.935Z,22.26
2017-01-29T03:45:17.475Z,22.31
2017-01-29T03:45:58.015Z,22.31
2017-01-29T03:46:38.534Z,22.31
2017-01-29T03:47:19.052Z,22.34
2017-01-29T03:47:59.569Z,22.28
2017-01-29T03:48:40.091Z,22.3
2017-01-29T03:49:20.628Z,22.3
2017-01-29T03:50:01.157Z,22.25
2017-01-29T03:50:41.676Z,22.26
2017-01-29T03:51:22.207Z,22.31
2017-01-29T03:52:02.750Z,22.3
2017-01-29T03:52:43.295Z,22.3
2017-01-29T03:53:23.825Z,22.31
2017-01-29T03:54:04.344Z,22.3
2017-01-29T03:54:44.902Z,22.3
2017-01-29T03:55:25.449Z,22.31
2017-01-29T03:56:05.947Z,22.33
2017-01-29T03:56:46.479Z,22.26
2017-01-29T03:57:27.007Z,22.33
2017-01-29T03:58:07.521Z,22.28
2017-01-29T03:58:48.060Z,22.33
2017-01-29T03:59:28.603Z,22.23
2017-01-29T04:00:09.148Z,22.3
2017-01-29T04:00:49.710Z,22.26
2017-01-29T04:01:30.241Z,22.26
2017-01-29T04:02:10.783Z,22.28
2017-01-29T04:02:51.301Z,22.3
2017-01-29T04:03:31.839Z,22.28
2017-01-29T04:04:12.388Z,22.28
2017-01-29T04:04:52.949Z,22.26
2017-01-29T04:05:33.483Z,22.26
2017-01-29T04:06:13.979Z,22.23
2017-01-29T04:06:54.507Z,22.3
2017-01-29T04:07:35.060Z,22.31
2017-01-29T04:08:15.591Z,22.37
2017-01-29T04:08:56.103Z,22.26
2017-01-29T04:09:36.642Z,22.28
2017-01-29T04:10:17.158Z,22.31
2017-01-29T04:10:57.707Z,22.23
2017-01-29T04:11:38.220Z,22.26
2017-01-29T04:12:18.773Z,22.3
2017-01-29T04:12:59.279Z,22.25
2017-01-29T04:13:39.806Z,22.3
2017-01-29T04:14:20.333Z,22.33
2017-01-29T04:15:00.853Z,22.26
2017-01-29T04:15:41.373Z,22.31
2017-01-29T04:16:21.927Z,22.25
2017-01-29T04:17:02.484Z,22.28
2017-01-29T04:17:42.996Z,22.28
2017-01-29T04:18:23.529Z,22.34
2017-01-29T04:19:04.064Z,22.25
2017-01-29T04:19:44.583Z,22.28
2017-01-29T04:20:25.123Z,22.26
2017-01-29T04:21:05.646Z,22.25
2017-01-29T04:21:46.172Z,22.33
2017-01-29T04:22:26.725Z,22.34
2017-01-29T04:23:07.251Z,22.33
2017-01-29T04:23:47.775Z,22.34
2017-01-29T04:24:28.299Z,22.25
2017-01-29T04:25:08.824Z,22.28
2017-01-29T04:25:49.358Z,22.3
2017-01-29T04:26:29.877Z,22.33
2017-01-29T04:27:10.396Z,22.28
2017-01-29T04:27:50.938Z,22.31
2017-01-29T04:28:31.462Z,22.3
2017-01-29T04:29:11.993Z,22.3
2017-01-29T04:29:52.505Z,22.31
2017-01-29T04:30:33.044Z,22.28
2017-01-29T04:31:13.574Z,22.28
2017-01-29T04:31:54.098Z,22.26
2017-01-29T04:32:34.629Z,22.26
2017-01-29T04:33:15.142Z,22.3
2017-01-29T04:33:55.670Z,22.28
2017-01-29T04:34:36.193Z,22.25
2017-01-29T04:35:16.726Z,22.34
2017-01-29T04:35:57.285Z,22.31
2017-01-29T04:36:37.786Z,22.3
2017-01-29T04:37:18.365Z,22.3
2017-01-29T04:37:58.922Z,22.3
2017-01-29T04:38:39.443Z,22.3
2017-01-29T04:39:19.968Z,22.33
2017-01-29T04:40:00.498Z,22.31
2017-01-29T04:40:41.017Z,22.28
2017-01-29T04:41:21.581Z,22.31
2017-01-29T04:42:02.141Z,22.31
2017-01-29T04:42:42.683Z,22.26
2017-01-29T04:43:23.234Z,22.31
2017-01-29T04:44:03.792Z,22.3
2017-01-29T04:44:44.331Z,22.28
2017-01-29T04:45:24.881Z,22.25
2017-01-29T04:46:05.406Z,22.25
2017-01-29T04:46:45.978Z,22.31
2017-01-29T04:47:26.550Z,22.31
2017-01-29T04:48:07.055Z,22.33
2017-01-29T04:48:47.572Z,22.41
2017-01-29T04:49:28.122Z,22.28
2017-01-29T04:50:08.632Z,22.31
2017-01-29T04:50:49.150Z,22.23
2017-01-29T04:51:29.681Z,22.31
2017-01-29T04:52:10.246Z,22.25
2017-01-29T04:52:50.783Z,22.38
2017-01-29T04:53:31.313Z,22.38
2017-01-29T04:54:11.851Z,22.37
2017-01-29T04:54:52.375Z,22.3
2017-01-29T04:55:32.888Z,22.28
2017-01-29T04:56:13.430Z,22.38
2017-01-29T04:56:53.956Z,22.38
2017-01-29T04:57:34.491Z,22.23
2017-01-29T04:58:15.022Z,22.38
2017-01-29T04:58:55.571Z,22.28
2017-01-29T04:59:36.109Z,22.41
2017-01-29T05:00:16.635Z,22.38
2017-01-29T05:00:57.194Z,22.28
2017-01-29T05:01:37.719Z,22.36
2017-01-29T05:02:18.258Z,22.38
2017-01-29T05:02:58.790Z,22.31
2017-01-29T05:03:39.329Z,22.34
2017-01-29T05:04:19.871Z,22.34
2017-01-29T05:05:00.396Z,22.28
2017-01-29T05:05:40.910Z,22.37
2017-01-29T05:06:21.444Z,22.41
2017-01-29T05:07:01.987Z,22.31
2017-01-29T05:07:42.511Z,22.28
2017-01-29T05:08:23.044Z,22.37
2017-01-29T05:09:03.591Z,22.38
2017-01-29T05:09:44.152Z,22.4
2017-01-29T05:10:24.681Z,22.34
2017-01-29T05:11:05.192Z,22.28
2017-01-29T05:11:45.824Z,22.28
2017-01-29T05:12:26.387Z,22.36
2017-01-29T05:13:06.970Z,22.3
2017-01-29T05:13:47.442Z,22.4
2017-01-29T05:14:27.971Z,22.28
2017-01-29T05:15:08.502Z,22.34
2017-01-29T05:15:49.029Z,22.41
2017-01-29T05:16:29.566Z,22.4
2017-01-29T05:17:10.089Z,22.43
2017-01-29T05:17:50.610Z,22.44
2017-01-29T05:18:31.147Z,22.33
2017-01-29T05:19:11.656Z,22.38
2017-01-29T05:19:52.190Z,22.33
2017-01-29T05:20:32.709Z,22.31
2017-01-29T05:21:13.239Z,22.37
2017-01-29T05:21:53.777Z,22.41
2017-01-29T05:22:34.294Z,22.44
2017-01-29T05:23:14.826Z,22.4
2017-01-29T05:23:55.354Z,22.4
2017-01-29T05:24:35.872Z,22.41
2017-01-29T05:25:16.405Z,22.36
2017-01-29T05:25:56.928Z,22.44
2017-01-29T05:26:37.475Z,22.36
2017-01-29T05:27:17.990Z,22.41
2017-01-29T05:27:58.536Z,22.33
2017-01-29T05:28:39.058Z,22.31
2017-01-29T05:29:19.623Z,22.41
2017-01-29T05:30:00.149Z,22.43
2017-01-29T05:30:40.687Z,22.38
2017-01-29T05:31:21.213Z,22.43
2017-01-29T05:32:01.708Z,22.3
2017-01-29T05:32:42.257Z,22.43
2017-01-29T05:33:22.760Z,22.4
2017-01-29T05:34:03.291Z,22.38
2017-01-29T05:34:43.848Z,22.3
2017-01-29T05:35:24.383Z,22.4
2017-01-29T05:36:04.913Z,22.43
2017-01-29T05:36:45.426Z,22.33
2017-01-29T05:37:25.965Z,22.41
2017-01-29T05:38:06.480Z,22.36
2017-01-29T05:38:47.010Z,22.34
2017-01-29T05:39:27.550Z,22.38
2017-01-29T05:40:08.087Z,22.43
2017-01-29T05:40:48.613Z,22.34
2017-01-29T05:41:29.166Z,22.36
2017-01-29T05:42:09.679Z,22.34
2017-01-29T05:42:50.215Z,22.37
2017-01-29T05:43:30.750Z,22.38
2017-01-29T05:44:11.301Z,22.36
2017-01-29T05:44:51.810Z,22.4
2017-01-29T05:45:32.343Z,22.44
2017-01-29T05:46:12.868Z,22.37
2017-01-29T05:46:53.403Z,22.41
2017-01-29T05:47:33.917Z,22.41
2017-01-29T05:48:14.467Z,22.41
2017-01-29T05:48:55.022Z,22.43
2017-01-29T05:49:35.544Z,22.41
2017-01-29T05:50:16.068Z,22.37
2017-01-29T05:50:56.627Z,22.36
2017-01-29T05:51:37.164Z,22.36
2017-01-29T05:52:17.692Z,22.36
2017-01-29T05:52:58.213Z,22.36
2017-01-29T05:53:38.743Z,22.36
2017-01-29T05:54:19.280Z,22.38
2017-01-29T05:54:59.817Z,22.36
2017-01-29T05:55:40.377Z,22.36
2017-01-29T05:56:20.930Z,22.36
2017-01-29T05:57:01.456Z,22.43
2017-01-29T05:57:42.003Z,22.41
2017-01-29T05:58:22.518Z,22.41
2017-01-29T05:59:03.053Z,22.36
2017-01-29T05:59:43.603Z,22.4
2017-01-29T06:00:24.151Z,22.46
2017-01-29T06:01:04.671Z,22.43
2017-01-29T06:01:45.225Z,22.46
2017-01-29T06:02:25.771Z,22.44
2017-01-29T06:03:06.294Z,22.41
2017-01-29T06:03:46.836Z,22.43
2017-01-29T06:04:27.344Z,22.38
2017-01-29T06:05:07.873Z,22.37
2017-01-29T06:05:48.402Z,22.43
2017-01-29T06:06:28.925Z,22.41
2017-01-29T06:07:09.469Z,22.43
2017-01-29T06:07:50.004Z,22.37
2017-01-29T06:08:30.529Z,22.41
2017-01-29T06:09:11.073Z,22.43
2017-01-29T06:09:51.589Z,22.43
2017-01-29T06:10:32.104Z,22.41
2017-01-29T06:11:12.665Z,22.46
2017-01-29T06:11:53.222Z,22.4
2017-01-29T06:12:33.757Z,22.41
2017-01-29T06:13:14.277Z,22.4
2017-01-29T06:13:54.809Z,22.37
2017-01-29T06:14:35.356Z,22.41
2017-01-29T06:15:15.891Z,22.36
2017-01-29T06:15:56.425Z,22.46
2017-01-29T06:16:36.947Z,22.46
2017-01-29T06:17:17.481Z,22.41
2017-01-29T06:17:58.012Z,22.46
2017-01-29T06:18:38.557Z,22.38
2017-01-29T06:19:19.122Z,22.43
2017-01-29T06:19:59.693Z,22.38
2017-01-29T06:20:40.233Z,22.41
2017-01-29T06:21:20.762Z,22.46
2017-01-29T06:22:01.291Z,22.38
2017-01-29T06:22:41.815Z,22.37
2017-01-29T06:23:22.350Z,22.43
2017-01-29T06:24:02.894Z,22.4
2017-01-29T06:24:43.430Z,22.43
2017-01-29T06:25:23.988Z,22.4
2017-01-29T06:26:04.541Z,22.43
2017-01-29T06:26:45.074Z,22.44
2017-01-29T06:27:25.589Z,22.37
2017-01-29T06:28:06.139Z,22.43
2017-01-29T06:28:46.669Z,22.43
2017-01-29T06:29:27.207Z,22.41
2017-01-29T06:30:07.742Z,22.41
2017-01-29T06:30:48.250Z,22.38
2017-01-29T06:31:28.775Z,22.4
2017-01-29T06:32:09.300Z,22.47
2017-01-29T06:32:49.840Z,22.43
2017-01-29T06:33:30.369Z,22.38
2017-01-29T06:34:10.910Z,22.43
2017-01-29T06:34:51.458Z,22.44
2017-01-29T06:35:32.001Z,22.38
2017-01-29T06:36:12.537Z,22.44
2017-01-29T06:36:53.059Z,22.44
2017-01-29T06:37:33.596Z,22.38
2017-01-29T06:38:14.138Z,22.4
2017-01-29T06:38:54.659Z,22.47
2017-01-29T06:39:35.192Z,22.41
2017-01-29T06:40:15.713Z,22.46
2017-01-29T06:40:56.253Z,22.46
2017-01-29T06:41:36.790Z,22.37
2017-01-29T06:42:17.355Z,22.41
2017-01-29T06:42:57.891Z,22.43
2017-01-29T06:43:38.424Z,22.41
2017-01-29T06:44:18.963Z,22.4
2017-01-29T06:44:59.495Z,22.41
2017-01-29T06:45:40.009Z,22.44
2017-01-29T06:46:20.541Z,22.43
2017-01-29T06:47:01.080Z,22.44
2017-01-29T06:47:41.620Z,22.44
2017-01-29T06:48:22.193Z,22.41
2017-01-29T06:49:02.735Z,22.46
2017-01-29T06:49:43.284Z,22.4
2017-01-29T06:50:23.825Z,22.46
2017-01-29T06:51:04.333Z,22.4
2017-01-29T06:51:44.841Z,22.43
2017-01-29T06:52:25.366Z,22.4
2017-01-29T06:53:05.895Z,22.44
2017-01-29T06:53:46.436Z,22.49
2017-01-29T06:54:26.951Z,22.49
2017-01-29T06:55:07.467Z,22.43
2017-01-29T06:55:47.999Z,22.46
2017-01-29T06:56:28.532Z,22.4
2017-01-29T06:57:09.068Z,22.37
2017-01-29T06:57:49.579Z,22.43
2017-01-29T06:58:30.098Z,22.38
2017-01-29T06:59:10.621Z,22.44
2017-01-29T06:59:51.157Z,22.41
2017-01-29T07:00:31.662Z,22.47
2017-01-29T07:01:12.219Z,22.49
2017-01-29T07:01:52.758Z,22.4
2017-01-29T07:02:34.022Z,22.47
2017-01-29T07:03:13.849Z,22.41
2017-01-29T07:03:54.379Z,22.41
2017-01-29T07:04:34.924Z,22.41
2017-01-29T07:05:15.465Z,22.41
2017-01-29T07:05:56.001Z,22.41
2017-01-29T07:06:36.536Z,22.49
2017-01-29T07:07:17.060Z,22.43
2017-01-29T07:07:57.568Z,22.44
2017-01-29T07:08:38.084Z,22.4
2017-01-29T07:09:18.612Z,22.37
2017-01-29T07:09:59.137Z,22.38
2017-01-29T07:10:39.648Z,22.37
2017-01-29T07:11:20.188Z,22.38
2017-01-29T07:12:00.711Z,22.43
2017-01-29T07:12:41.232Z,22.38
2017-01-29T07:13:21.760Z,22.41
2017-01-29T07:14:02.283Z,22.41
2017-01-29T07:14:42.829Z,22.46
2017-01-29T07:15:23.362Z,22.43
2017-01-29T07:16:03.887Z,22.44
2017-01-29T07:16:44.416Z,22.41
2017-01-29T07:17:24.947Z,22.41
2017-01-29T07:18:05.501Z,22.4
2017-01-29T07:18:46.038Z,22.41
2017-01-29T07:19:26.571Z,22.44
2017-01-29T07:20:07.107Z,22.37
2017-01-29T07:20:47.624Z,22.41
2017-01-29T07:21:28.153Z,22.38
2017-01-29T07:22:08.692Z,22.38
2017-01-29T07:22:49.215Z,22.46
2017-01-29T07:23:29.751Z,22.4
2017-01-29T07:24:10.253Z,22.41
2017-01-29T07:24:50.766Z,22.44
2017-01-29T07:25:31.310Z,22.43
2017-01-29T07:26:11.823Z,22.4
2017-01-29T07:26:52.341Z,22.44
2017-01-29T07:27:32.875Z,22.4
2017-01-29T07:28:13.414Z,22.51
2017-01-29T07:28:53.947Z,22.38
2017-01-29T07:29:34.466Z,22.4
2017-01-29T07:30:15.011Z,22.4
2017-01-29T07:30:55.539Z,22.52
2017-01-29T07:31:36.085Z,22.43
2017-01-29T07:32:16.620Z,22.43
2017-01-29T07:32:57.148Z,22.4
2017-01-29T07:33:37.694Z,22.37
2017-01-29T07:34:18.203Z,22.38
2017-01-29T07:34:58.722Z,22.4
2017-01-29T07:35:39.280Z,22.47
2017-01-29T07:36:19.820Z,22.51
2017-01-29T07:37:00.371Z,22.38
2017-01-29T07:37:40.946Z,22.38
2017-01-29T07:38:21.468Z,22.4
2017-01-29T07:39:02.060Z,22.43
2017-01-29T07:39:42.572Z,22.4
2017-01-29T07:40:23.097Z,22.38
2017-01-29T07:41:03.651Z,22.51
2017-01-29T07:41:44.195Z,22.41
2017-01-29T07:42:24.724Z,22.51
2017-01-29T07:43:05.272Z,22.43
2017-01-29T07:43:45.857Z,22.4
2017-01-29T07:44:26.386Z,22.38
2017-01-29T07:45:06.908Z,22.41
2017-01-29T07:45:47.453Z,22.46
2017-01-29T07:46:27.997Z,22.44
2017-01-29T07:47:08.521Z,22.43
2017-01-29T07:47:49.053Z,22.38
2017-01-29T07:48:29.576Z,22.36
2017-01-29T07:49:10.122Z,22.37
2017-01-29T07:49:50.649Z,22.4
2017-01-29T07:50:31.174Z,22.43
2017-01-29T07:51:11.697Z,22.51
2017-01-29T07:51:52.246Z,22.51
2017-01-29T07:52:32.769Z,22.46
2017-01-29T07:53:13.301Z,22.4
2017-01-29T07:53:53.835Z,22.4
2017-01-29T07:54:34.374Z,22.43
2017-01-29T07:55:14.920Z,22.4
2017-01-29T07:55:55.428Z,22.41
2017-01-29T07:56:35.966Z,22.41
2017-01-29T07:57:16.505Z,22.43
2017-01-29T07:57:57.074Z,22.46
2017-01-29T07:58:37.587Z,22.43
2017-01-29T07:59:18.101Z,22.4
2017-01-29T07:59:58.641Z,22.41
2017-01-29T08:00:39.182Z,22.44
2017-01-29T08:01:19.716Z,22.43
2017-01-29T08:02:00.256Z,22.41
2017-01-29T08:02:40.806Z,22.44
2017-01-29T08:03:21.335Z,22.41
2017-01-29T08:04:01.874Z,22.38
2017-01-29T08:04:42.417Z,22.38
2017-01-29T08:05:22.937Z,22.46
2017-01-29T08:06:03.492Z,22.43
2017-01-29T08:06:44.064Z,22.38
2017-01-29T08:07:24.592Z,22.46
2017-01-29T08:08:05.106Z,22.44
2017-01-29T08:08:45.634Z,22.46
2017-01-29T08:09:26.182Z,22.49
2017-01-29T08:10:06.728Z,22.38
2017-01-29T08:10:47.254Z,22.41
2017-01-29T08:11:27.810Z,22.49
2017-01-29T08:12:08.343Z,22.46
2017-01-29T08:12:48.859Z,22.44
2017-01-29T08:13:29.383Z,22.4
2017-01-29T08:14:09.902Z,22.41
2017-01-29T08:14:50.444Z,22.4
2017-01-29T08:15:30.978Z,22.49
2017-01-29T08:16:11.510Z,22.44
2017-01-29T08:16:52.033Z,22.4
2017-01-29T08:17:32.573Z,22.51
2017-01-29T08:18:13.106Z,22.38
2017-01-29T08:18:53.637Z,22.4
2017-01-29T08:19:34.158Z,22.47
2017-01-29T08:20:14.675Z,22.46
2017-01-29T08:20:55.205Z,22.47
2017-01-29T08:21:35.732Z,22.38
2017-01-29T08:22:16.271Z,22.41
2017-01-29T08:22:56.821Z,22.41
2017-01-29T08:23:37.354Z,22.44
2017-01-29T08:24:17.877Z,22.43
2017-01-29T08:24:58.450Z,22.41
2017-01-29T08:25:38.970Z,22.41
2017-01-29T08:26:19.529Z,22.44
2017-01-29T08:27:00.068Z,22.46
2017-01-29T08:27:40.614Z,22.41
2017-01-29T08:28:21.162Z,22.46
2017-01-29T08:29:01.682Z,22.53
2017-01-29T08:29:42.200Z,22.47
2017-01-29T08:30:22.726Z,22.47
2017-01-29T08:31:03.237Z,22.43
2017-01-29T08:31:43.755Z,22.37
2017-01-29T08:32:24.287Z,22.49
2017-01-29T08:33:04.820Z,22.44
2017-01-29T08:33:45.338Z,22.46
2017-01-29T08:34:25.872Z,22.47
2017-01-29T08:35:06.418Z,22.46
2017-01-29T08:35:46.943Z,22.43
2017-01-29T08:36:27.477Z,22.46
2017-01-29T08:37:08.015Z,22.53
2017-01-29T08:37:48.530Z,22.43
2017-01-29T08:38:29.056Z,22.46
2017-01-29T08:39:09.576Z,22.44
2017-01-29T08:39:50.132Z,22.4
2017-01-29T08:40:30.710Z,22.43
2017-01-29T08:41:11.229Z,22.44
2017-01-29T08:41:51.753Z,22.44
2017-01-29T08:42:32.304Z,22.4
2017-01-29T08:43:12.866Z,22.43
2017-01-29T08:43:53.390Z,22.53
2017-01-29T08:44:33.916Z,22.51